createdAt,value
2023-02-03T00:01:16.632Z,5.0125
2023-02-03T00:04:16.273Z,4.55
2023-02-03T00:07:16.211Z,3.225
2023-02-03T00:11:15.615Z,3.4125
2023-02-03T00:14:15.885Z,2.4375
2023-02-03T00:17:15.942Z,2.9375
2023-02-03T00:21:16.527Z,3.05
2023-02-03T00:24:16.556Z,2.8875
2023-02-03T00:27:16.390Z,3.0749999999999997
2023-02-03T00:31:17.943Z,3.6375
2023-02-03T00:34:16.094Z,3.6
2023-02-03T00:37:16.191Z,2.3625
2023-02-03T00:41:16.277Z,3.3000000000000003
2023-02-03T00:44:16.497Z,3.1125
2023-02-03T00:47:16.412Z,2.95
2023-02-03T00:51:16.461Z,3.15
2023-02-03T00:54:17.071Z,3.1625
2023-02-03T00:57:16.982Z,3.5749999999999997
2023-02-03T01:01:16.327Z,2.6
2023-02-03T01:04:16.616Z,3.85
2023-02-03T01:07:16.510Z,3.0375
2023-02-03T01:11:19.246Z,3.5250000000000004
2023-02-03T01:14:16.126Z,2.8375
2023-02-03T01:17:15.944Z,3.1875
2023-02-03T01:21:18.452Z,2.9375
2023-02-03T01:24:16.452Z,2.6
2023-02-03T01:27:16.350Z,3.5374999999999996
2023-02-03T01:31:19.190Z,2.75
2023-02-03T01:34:17.542Z,3.0250000000000004
2023-02-03T01:37:18.113Z,3.0500000000000003
2023-02-03T01:41:18.855Z,2.4875
2023-02-03T01:44:39.117Z,2.475
2023-02-03T01:47:24.074Z,3.2249999999999996
2023-02-03T01:51:17.017Z,2.825
2023-02-03T01:54:20.479Z,2.3125
2023-02-03T01:57:21.389Z,3.2
2023-02-03T02:01:18.560Z,3.2125000000000004
2023-02-03T02:04:16.469Z,3.3
2023-02-03T02:07:16.267Z,4.7125
2023-02-03T02:11:16.346Z,6.050000000000001
2023-02-03T02:14:16.963Z,5.3875
2023-02-03T02:17:33.902Z,3.475
2023-02-03T02:21:50.719Z,3.4
2023-02-03T02:24:54.920Z,2.6875
2023-02-03T02:27:30.744Z,2.5875
2023-02-03T02:32:27.636Z,3.6
2023-02-03T02:34:23.951Z,2.725
2023-02-03T02:37:25.428Z,2.7375
2023-02-03T02:41:23.192Z,2.8499999999999996
2023-02-03T02:44:22.739Z,2.575
2023-02-03T02:47:19.250Z,2.0375
2023-02-03T02:51:17.384Z,2.8125
2023-02-03T02:54:20.421Z,2.3125
2023-02-03T02:57:19.166Z,2.45
2023-02-03T03:01:16.884Z,2.4125
2023-02-03T03:04:21.295Z,2.7
2023-02-03T03:07:22.177Z,2.2625
2023-02-03T03:11:17.672Z,3.7625
2023-02-03T03:14:19.866Z,3.3125
2023-02-03T03:17:23.447Z,3.7375
2023-02-03T03:21:21.764Z,2.825
2023-02-03T03:24:21.221Z,2.5625
2023-02-03T03:27:22.469Z,2.0875
2023-02-03T03:31:18.308Z,2.3499999999999996
2023-02-03T03:34:17.388Z,3.6875
2023-02-03T03:37:22.906Z,2.7
2023-02-03T03:41:23.916Z,1.9
2023-02-03T03:44:19.060Z,2.525
2023-02-03T03:47:23.238Z,1.9249999999999998
2023-02-03T03:51:21.433Z,4.1875
2023-02-03T03:54:19.622Z,2.5
2023-02-03T03:57:21.086Z,5.325
2023-02-03T04:01:17.228Z,3.9000000000000004
2023-02-03T04:04:17.038Z,5.9625
2023-02-03T04:07:16.248Z,3.4625000000000004
2023-02-03T04:12:01.274Z,3.6374999999999997
2023-02-03T04:14:16.030Z,4.9125
2023-02-03T04:17:16.169Z,3.075
2023-02-03T04:21:15.971Z,2.8125
2023-02-03T04:24:16.366Z,2.85
2023-02-03T04:27:16.169Z,2.3125
2023-02-03T04:31:16.442Z,4.887499999999999
2023-02-03T04:34:16.426Z,3.6249999999999996
2023-02-03T04:37:16.491Z,3.325
2023-02-03T04:41:16.145Z,5.2875
2023-02-03T04:44:16.045Z,4.512499999999999
2023-02-03T04:47:17.223Z,4.2625
2023-02-03T04:51:16.383Z,3.3125
2023-02-03T04:54:16.798Z,2.4625
2023-02-03T04:57:16.826Z,2.575
2023-02-03T05:01:16.193Z,3.025
2023-02-03T05:04:16.697Z,1.85
2023-02-03T05:07:16.727Z,2.0999999999999996
2023-02-03T05:11:16.087Z,2.0125
2023-02-03T05:14:16.565Z,3.2125
2023-02-03T05:17:16.423Z,3.1
2023-02-03T05:21:16.585Z,2.5125
2023-02-03T05:24:16.792Z,2.8874999999999997
2023-02-03T05:27:16.752Z,2.375
2023-02-03T05:31:16.154Z,3.2625
2023-02-03T05:34:16.358Z,2.5
2023-02-03T05:37:16.295Z,2.6875
2023-02-03T05:42:21.486Z,2.35
2023-02-03T05:44:16.434Z,2.25
2023-02-03T05:47:16.363Z,2.1375
2023-02-03T05:51:16.040Z,2.5125
2023-02-03T05:54:16.444Z,3.025
2023-02-03T05:57:18.198Z,2.5999999999999996
2023-02-03T06:01:15.927Z,2.1375
2023-02-03T06:04:16.580Z,1.9249999999999998
2023-02-03T06:07:16.187Z,2.3
2023-02-03T06:11:16.517Z,1.8375000000000001
2023-02-03T06:14:16.838Z,1.375
2023-02-03T06:17:16.773Z,1.8375000000000001
2023-02-03T06:21:16.039Z,1.6375
2023-02-03T06:24:16.409Z,2.2125000000000004
2023-02-03T06:27:16.478Z,2.2375
2023-02-03T06:31:15.790Z,2.5
2023-02-03T06:34:15.912Z,2.3375000000000004
2023-02-03T06:37:16.467Z,2.55
2023-02-03T06:41:16.300Z,3.3249999999999997
2023-02-03T06:44:17.105Z,1.5125
2023-02-03T06:47:16.702Z,1.9
2023-02-03T06:51:16.408Z,2.1125
2023-02-03T06:54:16.716Z,1.725
2023-02-03T06:57:16.640Z,1.9375
2023-02-03T07:01:16.719Z,3.0125
2023-02-03T07:04:17.036Z,2.375
2023-02-03T07:07:17.111Z,2.55
2023-02-03T07:11:15.671Z,2.375
2023-02-03T07:14:16.227Z,3.8625000000000003
2023-02-03T07:17:16.109Z,3.1999999999999997
2023-02-03T07:21:16.567Z,2.425
2023-02-03T07:24:16.601Z,2.7
2023-02-03T07:27:16.418Z,3.8875
2023-02-03T07:31:15.772Z,2.8375000000000004
2023-02-03T07:34:16.122Z,2.8875
2023-02-03T07:37:16.097Z,2.3125
2023-02-03T07:41:18.072Z,3.075
2023-02-03T07:44:16.419Z,2.3375
2023-02-03T07:47:16.488Z,2.725
2023-02-03T07:51:16.538Z,2.9
2023-02-03T07:54:17.014Z,2.225
2023-02-03T07:57:16.665Z,2.9000000000000004
2023-02-03T08:01:16.344Z,2.7625
2023-02-03T08:04:17.950Z,3.4
2023-02-03T08:07:16.237Z,4.8375
2023-02-03T08:11:16.113Z,3.1375
2023-02-03T08:14:16.497Z,2.6875
2023-02-03T08:17:16.513Z,2.9625
2023-02-03T08:21:16.249Z,3.375
2023-02-03T08:24:16.653Z,2.5125
2023-02-03T08:27:18.447Z,2.3625
2023-02-03T08:31:16.889Z,3.6
2023-02-03T08:34:16.997Z,3.45
2023-02-03T08:37:19.715Z,4.3125
2023-02-03T08:41:17.600Z,3.2875
2023-02-03T08:44:18.643Z,2.425
2023-02-03T08:47:17.988Z,2.425
2023-02-03T08:51:17.091Z,4.85
2023-02-03T08:54:15.987Z,4.5125
2023-02-03T08:57:16.216Z,4.574999999999999
2023-02-03T09:01:16.065Z,5.5625
2023-02-03T09:04:19.610Z,6.3999999999999995
2023-02-03T09:07:17.558Z,6.0625
2023-02-03T09:11:17.780Z,8.6375
2023-02-03T09:14:16.171Z,12.2
2023-02-03T09:17:16.260Z,7.699999999999999
2023-02-03T09:21:32.061Z,5.75
2023-02-03T09:24:17.406Z,6.0375
2023-02-03T09:27:16.468Z,4.35
2023-02-03T09:31:18.012Z,5.2875
2023-02-03T09:34:17.176Z,5.775
2023-02-03T09:37:16.893Z,5.3125
2023-02-03T09:41:30.135Z,7.625
2023-02-03T09:44:24.288Z,7.9
2023-02-03T09:47:21.771Z,7.737500000000001
2023-02-03T09:51:21.791Z,8.8
2023-02-03T09:54:21.088Z,7.2875
2023-02-03T09:57:21.562Z,7.324999999999999
2023-02-03T10:01:18.346Z,7.325
2023-02-03T10:04:26.719Z,6.862500000000001
2023-02-03T10:07:25.873Z,7.075
2023-02-03T10:11:30.439Z,8.85
2023-02-03T10:14:31.070Z,8.8875
2023-02-03T10:17:27.679Z,8.149999999999999
2023-02-03T10:21:27.453Z,7.7375
2023-02-03T10:24:23.620Z,7.2875000000000005
2023-02-03T10:27:20.525Z,8.375
2023-02-03T10:31:20.927Z,8.299999999999999
2023-02-03T10:34:17.285Z,8.45
2023-02-03T10:37:26.740Z,7.825
2023-02-03T10:41:17.090Z,7.987500000000001
2023-02-03T10:44:16.259Z,6.8625
2023-02-03T10:47:23.254Z,7.7375
2023-02-03T10:51:21.676Z,7.275
2023-02-03T10:54:33.613Z,7.0125
2023-02-03T10:57:16.925Z,7.1875
2023-02-03T11:01:19.005Z,5.475
2023-02-03T11:04:25.778Z,5.4125
2023-02-03T11:07:26.051Z,5.550000000000001
2023-02-03T11:11:24.841Z,5.825
2023-02-03T11:14:16.631Z,5.4625
2023-02-03T11:17:18.662Z,6.1375
2023-02-03T11:21:19.248Z,5.612500000000001
2023-02-03T11:24:20.266Z,4.1125
2023-02-03T11:27:18.896Z,4.8375
2023-02-03T11:31:20.141Z,4.5375
2023-02-03T11:34:18.814Z,4.8125
2023-02-03T11:37:36.272Z,4.425
2023-02-03T11:41:18.226Z,4.3875
2023-02-03T11:44:20.064Z,3.4499999999999997
2023-02-03T11:47:17.967Z,4.1625
2023-02-03T11:51:31.449Z,3.6750000000000003
2023-02-03T11:54:29.716Z,2.1875
2023-02-03T11:57:30.898Z,2.5625
2023-02-03T12:01:28.610Z,3.0875
2023-02-03T12:05:19.931Z,2.8625
2023-02-03T12:07:46.508Z,2.7249999999999996
2023-02-03T12:11:28.316Z,3.1
2023-02-03T12:14:33.447Z,2.7249999999999996
2023-02-03T12:17:28.504Z,3.325
2023-02-03T12:21:34.447Z,4.0125
2023-02-03T12:24:33.629Z,3.7375000000000003
2023-02-03T12:27:27.927Z,4.775
2023-02-03T12:31:24.905Z,7.1875
2023-02-03T12:34:22.601Z,6.25
2023-02-03T12:37:22.533Z,6.55
2023-02-03T12:41:21.048Z,5.9
2023-02-03T12:44:21.201Z,6.625
2023-02-03T12:47:27.124Z,5.574999999999999
2023-02-03T12:51:23.893Z,5.9625
2023-02-03T12:54:34.039Z,5.4125
2023-02-03T12:57:22.315Z,4.85
2023-02-03T13:01:21.830Z,5.375
2023-02-03T13:04:27.021Z,4.525
2023-02-03T13:07:23.568Z,4.1625
2023-02-03T13:11:23.366Z,5.2375
2023-02-03T13:14:21.640Z,5.0125
2023-02-03T13:17:21.484Z,4.725
2023-02-03T13:21:16.614Z,4.9
2023-02-03T13:24:17.310Z,3.7249999999999996
2023-02-03T13:27:36.174Z,4.362500000000001
2023-02-03T13:31:29.138Z,3.825
2023-02-03T13:34:40.918Z,3.45
2023-02-03T13:37:47.030Z,3.0875
2023-02-03T13:41:21.930Z,3.4499999999999997
2023-02-03T13:44:20.416Z,3.9375
2023-02-03T13:47:21.275Z,2.7624999999999997
2023-02-03T13:51:19.909Z,4.5375
2023-02-03T13:54:24.755Z,3.8875
2023-02-03T13:57:22.165Z,2.9875000000000003
2023-02-03T14:01:48.500Z,3.2375
2023-02-03T14:04:53.960Z,2.9375
2023-02-03T14:07:27.959Z,3.9375
2023-02-03T14:11:50.285Z,4.4
2023-02-03T14:15:31.649Z,4.612500000000001
2023-02-03T14:21:20.165Z,3.575
2023-02-03T14:24:17.608Z,3.1125
2023-02-03T14:27:20.527Z,2.9000000000000004
2023-02-03T14:31:20.488Z,3.2375000000000003
2023-02-03T14:34:16.800Z,3.5125
2023-02-03T14:37:20.800Z,3.3875
2023-02-03T14:41:22.481Z,3.6125000000000003
2023-02-03T14:44:29.665Z,3.425
2023-02-03T14:47:28.088Z,9.1875
2023-02-03T14:51:28.426Z,4.5
2023-02-03T14:54:39.797Z,5.375
2023-02-03T14:57:31.767Z,3.7750000000000004
2023-02-03T15:01:26.551Z,3.4125
2023-02-03T15:04:21.375Z,3.6625
2023-02-03T15:07:49.879Z,3.0625
2023-02-03T15:11:24.287Z,3.3125
2023-02-03T15:14:24.272Z,3.1125
2023-02-03T15:17:22.481Z,6.65
2023-02-03T15:21:18.565Z,4.9625
2023-02-03T15:24:20.780Z,3.9499999999999993
2023-02-03T15:27:21.927Z,3.725
2023-02-03T15:31:21.905Z,3.9
2023-02-03T15:34:25.880Z,3.8125
2023-02-03T15:37:21.289Z,3.15
2023-02-03T15:41:21.795Z,5.15
2023-02-03T15:44:26.460Z,5
2023-02-03T15:47:24.981Z,3.9625
2023-02-03T15:51:19.943Z,4.1625000000000005
2023-02-03T15:54:23.095Z,3.0625
2023-02-03T15:57:20.690Z,3.1
2023-02-03T16:01:21.106Z,3.1375
2023-02-03T16:04:16.701Z,3.1875
2023-02-03T16:07:20.158Z,3.9
2023-02-03T16:11:28.528Z,5.1375
2023-02-03T16:14:32.607Z,4.4
2023-02-03T16:17:24.507Z,4
2023-02-03T16:21:28.049Z,3.9625
2023-02-03T16:24:34.805Z,3.275
2023-02-03T16:27:21.251Z,6.0375
2023-02-03T16:51:16.756Z,5.025
2023-02-03T16:54:18.319Z,6.275
2023-02-03T16:57:17.212Z,26.5625
2023-02-03T17:01:16.561Z,8.9625
2023-02-03T17:04:16.630Z,8.899999999999999
2023-02-03T17:07:16.967Z,11.4
2023-02-03T17:11:18.728Z,11.6125
2023-02-03T17:14:16.708Z,8.212499999999999
2023-02-03T17:17:16.386Z,7.5249999999999995
2023-02-03T17:21:21.152Z,8.125
2023-02-03T17:24:16.828Z,6.3375
2023-02-03T17:27:16.778Z,6.425000000000001
2023-02-03T17:31:19.197Z,8.325
2023-02-03T17:34:17.194Z,6.025
2023-02-03T17:37:16.801Z,5.8125
2023-02-03T18:01:18.881Z,14.3375
2023-02-03T18:04:16.150Z,8.95
2023-02-03T18:07:16.363Z,6.8375
2023-02-03T18:11:17.309Z,9.675
2023-02-03T18:14:16.612Z,12.087499999999999
2023-02-03T18:17:16.419Z,9.15
2023-02-03T18:21:15.675Z,8.3
2023-02-03T18:24:18.390Z,8.075
2023-02-03T18:27:18.216Z,7.5625
2023-02-03T18:31:18.823Z,6.9
2023-02-03T18:34:16.770Z,7.3375
2023-02-03T18:37:16.802Z,6.7875
2023-02-03T18:41:18.107Z,8.2375
2023-02-03T18:44:16.262Z,6.5125
2023-02-03T18:47:16.220Z,7.1625
2023-02-03T18:51:18.510Z,7.0375
2023-02-03T18:54:16.771Z,7.7375
2023-02-03T18:57:16.769Z,11.9875
2023-02-03T19:01:22.631Z,10.6
2023-02-03T19:04:17.251Z,9.75
2023-02-03T19:07:17.350Z,8.2
2023-02-03T19:11:16.537Z,9.649999999999999
2023-02-03T19:14:18.229Z,8.4
2023-02-03T19:17:16.636Z,8.7375
2023-02-03T19:21:16.007Z,7.05
2023-02-03T19:24:16.548Z,9.475
2023-02-03T19:27:16.270Z,15.075
2023-02-03T19:31:16.884Z,9.712499999999999
2023-02-03T19:34:17.313Z,10.525
2023-02-03T19:37:17.127Z,11.575
2023-02-03T19:41:15.730Z,11.975000000000001
2023-02-03T19:44:16.206Z,9.4875
2023-02-03T19:47:16.214Z,10.2125
2023-02-03T19:51:17.441Z,10.8625
2023-02-03T19:54:16.968Z,11.5875
2023-02-03T19:57:17.287Z,10.35
2023-02-03T20:01:16.400Z,10.399999999999999
2023-02-03T20:04:16.699Z,8.125
2023-02-03T20:07:16.954Z,11.575
2023-02-03T20:11:16.798Z,24.05
2023-02-03T20:14:18.504Z,14.5
2023-02-03T20:17:16.709Z,13.100000000000001
2023-02-03T20:21:15.865Z,10.8125
2023-02-03T20:24:16.877Z,10.65
2023-02-03T20:27:18.111Z,10.837499999999999
2023-02-03T20:31:16.519Z,11.05
2023-02-03T20:34:16.593Z,9.024999999999999
2023-02-03T20:37:16.940Z,13.1375
2023-02-03T20:41:17.629Z,8.225000000000001
2023-02-03T20:44:19.037Z,8.2375
2023-02-03T20:47:18.854Z,6.9875
2023-02-03T20:51:18.235Z,7.15
2023-02-03T20:54:19.262Z,8.7875
2023-02-03T20:57:18.954Z,8.075
2023-02-03T21:01:21.353Z,9.774999999999999
2023-02-03T21:05:27.092Z,12.024999999999999
2023-02-03T21:07:18.648Z,23.049999999999997
2023-02-03T21:11:18.917Z,17.7125
2023-02-03T21:14:19.790Z,13.85
2023-02-03T21:17:19.595Z,9.0375
2023-02-03T21:21:18.350Z,10.1375
2023-02-03T21:24:23.898Z,8.4375
2023-02-03T21:27:23.168Z,9.225000000000001
2023-02-03T21:31:21.351Z,11.774999999999999
2023-02-03T21:34:24.368Z,14.7375
2023-02-03T21:37:38.270Z,9.200000000000001
2023-02-03T21:41:18.356Z,15.6375
2023-02-03T21:44:26.070Z,8.65
2023-02-03T21:47:17.636Z,11.3875
2023-02-03T21:51:18.501Z,12.412500000000001
2023-02-03T21:54:25.013Z,10.35
2023-02-03T21:57:17.959Z,10.6875
2023-02-03T22:01:18.602Z,9.899999999999999
2023-02-03T22:04:17.149Z,9.5875
2023-02-03T22:07:18.057Z,8.225
2023-02-03T22:11:18.702Z,9.875
2023-02-03T22:14:18.803Z,11.287500000000001
2023-02-03T22:17:19.197Z,10.837499999999999
2023-02-03T22:21:16.958Z,13.025
2023-02-03T22:24:16.307Z,11.2625
2023-02-03T22:27:16.304Z,9.175
2023-02-03T22:31:17.621Z,9.975000000000001
2023-02-03T22:34:17.523Z,10.137500000000001
2023-02-03T22:37:17.107Z,9.9
2023-02-03T22:41:16.876Z,9.325
2023-02-03T22:44:18.554Z,7.762499999999999
2023-02-03T22:47:16.860Z,9.3
2023-02-03T22:51:16.656Z,9.287500000000001
2023-02-03T22:54:16.924Z,8.175
2023-02-03T22:57:16.875Z,9.5125
2023-02-03T23:01:16.550Z,11.387500000000001
2023-02-03T23:04:17.196Z,10
2023-02-03T23:07:16.851Z,10.025
2023-02-03T23:11:16.477Z,9.8875
2023-02-03T23:14:17.169Z,9.037500000000001
2023-02-03T23:17:17.244Z,8.65
2023-02-03T23:21:16.749Z,8.4875
2023-02-03T23:24:17.042Z,7.6625
2023-02-03T23:27:16.952Z,6.975
2023-02-03T23:31:16.857Z,8.899999999999999
2023-02-03T23:41:16.628Z,8.649999999999999
2023-02-03T23:44:16.909Z,7.7125
2023-02-03T23:47:16.900Z,7.7625
2023-02-03T23:51:16.494Z,20.650000000000002
2023-02-03T23:54:17.014Z,16.3625
2023-02-03T23:57:16.928Z,13.425
